createdAt,value
2022-10-04T00:00:11.350Z,91.10
2022-10-04T00:04:08.700Z,91.20
2022-10-04T00:07:59.943Z,91.20
2022-10-04T00:11:46.744Z,91.20
2022-10-04T00:15:29.787Z,91.30
2022-10-04T00:19:20.582Z,90.20
2022-10-04T00:23:24.184Z,91.00
2022-10-04T00:27:21.029Z,90.80
2022-10-04T00:31:24.916Z,91.00
2022-10-04T00:35:25.198Z,90.70
2022-10-04T00:39:09.830Z,90.70
2022-10-04T00:43:08.752Z,91.10
2022-10-04T00:46:51.903Z,90.90
2022-10-04T00:50:46.127Z,91.20
2022-10-04T00:54:46.356Z,91.00
2022-10-04T00:58:37.559Z,91.20
2022-10-04T01:02:58.707Z,91.10
2022-10-04T01:06:41.915Z,90.80
2022-10-04T01:10:33.276Z,91.30
2022-10-04T01:14:26.569Z,91.00
2022-10-04T01:18:16.104Z,91.10
2022-10-04T01:21:59.839Z,91.10
2022-10-04T01:25:48.074Z,91.20
2022-10-04T01:29:31.735Z,91.20
2022-10-04T01:33:13.958Z,91.30
2022-10-04T01:36:59.186Z,91.20
2022-10-04T01:41:00.880Z,91.40
2022-10-04T01:44:48.307Z,90.90
2022-10-04T01:48:36.337Z,91.20
2022-10-04T01:52:22.571Z,91.10
2022-10-04T01:56:09.387Z,91.10
2022-10-04T01:59:53.906Z,91.20
2022-10-04T02:03:51.036Z,90.30
2022-10-04T02:07:36.519Z,90.90
2022-10-04T02:11:23.200Z,91.10
2022-10-04T02:15:08.510Z,91.20
2022-10-04T02:18:52.100Z,91.20
2022-10-04T02:22:34.150Z,91.30
2022-10-04T02:26:16.048Z,91.20
2022-10-04T02:30:09.621Z,91.20
2022-10-04T02:33:55.723Z,91.40
2022-10-04T02:37:39.774Z,91.20
2022-10-04T02:41:51.570Z,91.30
2022-10-04T02:45:49.557Z,91.10
2022-10-04T02:49:48.674Z,91.10
2022-10-04T02:54:03.630Z,91.30
2022-10-04T02:57:50.036Z,90.80
2022-10-04T03:02:01.991Z,90.90
2022-10-04T03:06:13.742Z,90.60
2022-10-04T03:09:55.853Z,90.50
2022-10-04T03:13:49.263Z,90.50
2022-10-04T03:17:31.147Z,90.40
2022-10-04T03:21:16.190Z,90.20
2022-10-04T03:24:58.583Z,90.00
2022-10-04T03:28:40.922Z,90.00
2022-10-04T03:32:23.069Z,89.60
2022-10-04T03:36:05.151Z,88.50
2022-10-04T03:39:52.678Z,88.50
2022-10-04T03:43:46.492Z,87.70
2022-10-04T03:47:32.930Z,87.90
2022-10-04T03:51:18.804Z,87.60
2022-10-04T03:55:06.904Z,87.30
2022-10-04T03:58:50.910Z,87.30
2022-10-04T04:02:48.862Z,87.20
2022-10-04T04:06:41.822Z,86.60
2022-10-04T04:10:37.488Z,86.30
2022-10-04T04:14:26.831Z,86.40
2022-10-04T04:18:21.944Z,86.40
2022-10-04T04:22:03.846Z,86.00
2022-10-04T04:25:49.699Z,86.20
2022-10-04T04:29:42.786Z,86.10
2022-10-04T04:33:33.175Z,86.90
2022-10-04T04:37:14.954Z,87.10
2022-10-04T04:40:57.458Z,86.90
2022-10-04T04:44:56.873Z,87.30
2022-10-04T04:48:38.776Z,88.00
2022-10-04T04:52:25.975Z,87.50
2022-10-04T04:56:19.675Z,87.20
2022-10-04T05:00:02.475Z,87.40
2022-10-04T05:03:44.428Z,86.90
2022-10-04T05:07:29.716Z,87.20
2022-10-04T05:11:16.561Z,87.00
2022-10-04T05:14:58.441Z,86.90
2022-10-04T05:18:40.344Z,87.20
2022-10-04T05:22:24.307Z,87.10
2022-10-04T05:26:11.675Z,87.40
2022-10-04T05:30:07.768Z,87.00
2022-10-04T05:33:55.694Z,87.10
2022-10-04T05:37:42.652Z,86.70
2022-10-04T05:41:33.645Z,86.90
2022-10-04T05:45:30.645Z,86.40
2022-10-04T05:49:18.855Z,87.40
2022-10-04T05:53:35.660Z,88.00
2022-10-04T05:57:23.868Z,87.80
2022-10-04T06:01:13.541Z,88.40
2022-10-04T06:05:01.870Z,88.80
2022-10-04T06:08:56.440Z,89.00
2022-10-04T06:13:02.244Z,89.20
2022-10-04T06:16:56.571Z,89.00
2022-10-04T06:20:50.559Z,89.30
2022-10-04T06:24:38.479Z,89.50
2022-10-04T06:28:25.263Z,89.80
2022-10-04T06:32:34.378Z,89.90
2022-10-04T06:36:26.781Z,89.90
2022-10-04T06:40:27.108Z,90.10
2022-10-04T06:44:28.799Z,90.10
2022-10-04T06:48:31.279Z,90.30
2022-10-04T06:52:43.542Z,90.60
2022-10-04T06:56:44.142Z,90.60
2022-10-04T07:00:36.924Z,90.50
2022-10-04T07:05:07.133Z,90.50
2022-10-04T07:08:50.164Z,90.40
2022-10-04T07:12:34.007Z,90.30
2022-10-04T07:16:24.486Z,90.30
2022-10-04T07:20:07.490Z,90.30
2022-10-04T07:23:57.578Z,90.30
2022-10-04T07:27:47.872Z,90.30
2022-10-04T07:31:35.420Z,90.30
2022-10-04T07:35:32.897Z,90.30
2022-10-04T07:39:22.035Z,90.40
2022-10-04T07:43:26.936Z,90.30
2022-10-04T07:47:29.546Z,90.30
2022-10-04T07:51:26.862Z,90.40
2022-10-04T07:55:37.569Z,90.40
2022-10-04T07:59:45.424Z,90.60
2022-10-04T08:03:48.342Z,90.60
2022-10-04T08:08:02.226Z,90.80
2022-10-04T08:12:05.676Z,90.60
2022-10-04T08:15:47.814Z,91.00
2022-10-04T08:19:38.586Z,90.90
2022-10-04T08:23:44.873Z,90.90
2022-10-04T08:27:41.394Z,91.00
2022-10-04T08:31:50.890Z,91.10
2022-10-04T08:36:16.323Z,91.20
2022-10-04T08:40:03.944Z,91.20
2022-10-04T08:44:33.296Z,91.50
2022-10-04T08:48:45.387Z,91.20
2022-10-04T08:52:56.897Z,91.60
2022-10-04T08:57:16.118Z,91.50
2022-10-04T09:01:52.466Z,91.50
2022-10-04T09:05:55.815Z,91.40
2022-10-04T09:10:06.388Z,92.20
2022-10-04T09:13:55.788Z,91.80
2022-10-04T09:18:17.948Z,91.80
2022-10-04T09:22:19.770Z,91.50
2022-10-04T09:26:22.754Z,91.30
2022-10-04T09:30:21.218Z,91.20
2022-10-04T09:34:03.231Z,91.00
2022-10-04T09:38:11.288Z,90.80
2022-10-04T09:42:27.036Z,90.60
2022-10-04T09:46:20.929Z,90.30
2022-10-04T09:50:14.761Z,90.20
2022-10-04T09:54:15.762Z,90.80
2022-10-04T09:58:29.859Z,90.70
2022-10-04T10:02:33.217Z,90.50
2022-10-04T10:06:49.375Z,90.60
2022-10-04T10:11:07.265Z,90.00
2022-10-04T10:15:13.202Z,89.40
2022-10-04T10:19:05.665Z,88.60
2022-10-04T10:23:13.675Z,87.30
2022-10-04T10:27:15.268Z,86.10
2022-10-04T10:31:14.214Z,86.40
2022-10-04T10:35:17.918Z,85.60
2022-10-04T10:39:15.110Z,85.30
2022-10-04T10:43:34.972Z,88.40
2022-10-04T10:47:34.654Z,83.30
2022-10-04T10:51:49.254Z,78.90
2022-10-04T10:55:52.831Z,76.30
2022-10-04T10:59:43.610Z,73.90
2022-10-04T11:03:57.775Z,69.60
2022-10-04T11:08:00.294Z,68.60
2022-10-04T11:12:00.373Z,70.50
2022-10-04T11:16:21.449Z,69.00
2022-10-04T11:20:06.414Z,70.60
2022-10-04T11:23:52.013Z,70.40
2022-10-04T11:27:56.662Z,70.60
2022-10-04T11:32:00.431Z,71.90
2022-10-04T11:36:05.289Z,73.80
2022-10-04T11:40:07.568Z,74.30
2022-10-04T11:44:04.149Z,74.60
2022-10-04T11:47:55.122Z,74.20
2022-10-04T11:51:51.643Z,74.50
2022-10-04T11:55:44.360Z,74.90
2022-10-04T11:59:28.882Z,73.70
2022-10-04T12:03:22.639Z,74.40
2022-10-04T12:07:26.782Z,75.00
2022-10-04T12:12:04.298Z,75.40
2022-10-04T12:16:33.335Z,75.30
2022-10-04T12:20:17.996Z,75.10
2022-10-04T12:24:17.955Z,74.40
2022-10-04T12:28:11.420Z,72.90
2022-10-04T12:32:13.034Z,74.30
2022-10-04T12:36:15.071Z,73.20
2022-10-04T12:40:02.480Z,72.90
2022-10-04T12:43:56.797Z,71.00
2022-10-04T12:48:06.406Z,71.30
2022-10-04T12:52:15.563Z,72.80
2022-10-04T12:55:57.422Z,72.50
2022-10-04T13:00:00.019Z,71.60
2022-10-04T13:04:13.713Z,72.80
2022-10-04T13:08:22.425Z,73.70
2022-10-04T13:12:26.673Z,73.90
2022-10-04T13:21:00.178Z,73.00
2022-10-04T13:25:05.298Z,74.10
2022-10-04T13:28:55.947Z,74.10
2022-10-04T13:33:01.645Z,74.50
2022-10-04T13:37:13.415Z,74.70
2022-10-04T13:41:04.242Z,74.60
2022-10-04T13:45:27.734Z,76.10
2022-10-04T13:49:30.192Z,75.30
2022-10-04T13:54:03.240Z,75.40
2022-10-04T13:58:24.166Z,73.90
2022-10-04T14:02:27.562Z,70.90
2022-10-04T14:06:38.814Z,67.60
2022-10-04T14:10:48.564Z,68.40
2022-10-04T14:15:12.294Z,67.20
2022-10-04T14:19:18.135Z,64.90
2022-10-04T14:23:30.411Z,63.40
2022-10-04T14:27:23.314Z,62.00
2022-10-04T14:31:50.311Z,62.50
2022-10-04T14:35:47.696Z,64.60
2022-10-04T14:39:41.283Z,65.20
2022-10-04T14:44:00.514Z,66.70
2022-10-04T14:48:20.004Z,67.10
2022-10-04T14:52:20.702Z,65.90
2022-10-04T14:56:24.279Z,63.40
2022-10-04T15:00:16.952Z,62.70
2022-10-04T15:04:19.881Z,63.90
2022-10-04T15:08:26.622Z,64.60
2022-10-04T15:12:58.563Z,67.00
2022-10-04T15:16:34.167Z,67.80
2022-10-04T15:20:50.218Z,69.50
2022-10-04T15:24:46.766Z,70.50
2022-10-04T15:28:49.710Z,71.00
2022-10-04T15:32:48.848Z,72.20
2022-10-04T15:37:25.408Z,72.60
2022-10-04T15:41:29.548Z,72.80
2022-10-04T15:45:17.041Z,72.90
2022-10-04T15:49:20.608Z,73.60
2022-10-04T15:53:24.104Z,74.00
2022-10-04T15:57:44.845Z,74.30
2022-10-04T16:01:39.229Z,74.50
2022-10-04T16:05:29.359Z,74.40
2022-10-04T16:09:29.942Z,75.00
2022-10-04T16:13:26.943Z,75.20
2022-10-04T16:17:27.227Z,75.40
2022-10-04T16:21:19.000Z,75.80
2022-10-04T16:25:25.733Z,75.00
2022-10-04T16:29:32.206Z,75.00
2022-10-04T16:33:37.804Z,74.50
2022-10-04T16:37:37.934Z,74.80
2022-10-04T16:41:36.811Z,75.10
2022-10-04T16:46:02.888Z,75.40
2022-10-04T16:49:57.163Z,75.30
2022-10-04T16:54:13.135Z,75.70
2022-10-04T16:58:26.174Z,75.90
2022-10-04T17:02:17.399Z,76.20
2022-10-04T17:06:31.303Z,76.80
2022-10-04T17:10:21.465Z,76.90
2022-10-04T17:14:30.148Z,77.30
2022-10-04T17:18:32.230Z,77.50
2022-10-04T17:22:41.929Z,78.20
2022-10-04T17:26:26.795Z,78.30
2022-10-04T17:30:30.872Z,78.40
2022-10-04T17:34:41.298Z,78.80
2022-10-04T17:38:47.186Z,78.90
2022-10-04T17:42:42.004Z,79.00
2022-10-04T17:46:39.727Z,79.60
2022-10-04T17:51:06.020Z,79.70
2022-10-04T17:55:11.635Z,79.80
2022-10-04T17:58:56.471Z,80.30
2022-10-04T18:02:57.270Z,80.30
2022-10-04T18:06:50.011Z,80.80
2022-10-04T18:10:35.582Z,80.90
2022-10-04T18:15:01.546Z,81.30
2022-10-04T18:18:45.540Z,80.90
2022-10-04T18:22:29.242Z,81.30
2022-10-04T18:26:18.486Z,81.50
2022-10-04T18:30:16.161Z,81.60
2022-10-04T18:34:05.024Z,81.60
2022-10-04T18:37:46.938Z,82.20
2022-10-04T18:41:49.728Z,82.50
2022-10-04T18:45:33.854Z,82.80
2022-10-04T18:49:27.110Z,83.00
2022-10-04T18:53:35.900Z,83.20
2022-10-04T18:57:26.285Z,83.10
2022-10-04T19:01:48.512Z,83.50
2022-10-04T19:05:39.972Z,83.20
2022-10-04T19:09:58.069Z,83.70
2022-10-04T19:13:57.952Z,83.50
2022-10-04T19:17:59.500Z,84.00
2022-10-04T19:21:54.857Z,83.80
2022-10-04T19:26:09.857Z,84.00
2022-10-04T19:29:49.515Z,84.00
2022-10-04T19:33:52.663Z,84.20
2022-10-04T19:37:50.511Z,84.00
2022-10-04T19:41:41.133Z,84.00
2022-10-04T19:45:47.846Z,84.40
2022-10-04T19:50:16.431Z,84.00
2022-10-04T19:54:12.070Z,84.00
2022-10-04T19:58:16.712Z,84.30
2022-10-04T20:01:58.739Z,84.70
2022-10-04T20:05:49.427Z,84.30
2022-10-04T20:09:36.745Z,84.40
2022-10-04T20:13:23.403Z,84.40
2022-10-04T20:17:06.027Z,84.50
2022-10-04T20:20:54.055Z,84.60
2022-10-04T20:24:39.384Z,84.60
2022-10-04T20:28:27.476Z,85.00
2022-10-04T20:32:32.095Z,84.80
2022-10-04T20:36:19.831Z,85.10
2022-10-04T20:40:01.956Z,85.10
2022-10-04T20:43:58.185Z,85.20
2022-10-04T20:47:45.955Z,85.00
2022-10-04T20:51:30.243Z,85.20
2022-10-04T20:55:27.470Z,85.00
2022-10-04T20:59:15.683Z,84.90
2022-10-04T21:03:16.011Z,85.00
2022-10-04T21:07:02.836Z,84.60
2022-10-04T21:11:33.060Z,84.70
2022-10-04T21:15:21.294Z,84.80
2022-10-04T21:19:48.256Z,84.70
2022-10-04T21:23:33.750Z,84.50
2022-10-04T21:27:34.097Z,84.80
2022-10-04T21:31:16.064Z,84.60
2022-10-04T21:34:57.908Z,84.60
2022-10-04T21:38:39.707Z,84.60
2022-10-04T21:42:22.076Z,84.80
2022-10-04T21:46:04.008Z,84.80
2022-10-04T21:49:46.129Z,84.80
2022-10-04T21:53:27.915Z,84.70
2022-10-04T21:57:10.110Z,84.70
2022-10-04T22:00:51.965Z,84.50
2022-10-04T22:04:33.784Z,84.70
2022-10-04T22:08:15.720Z,84.70
2022-10-04T22:11:57.550Z,84.50
2022-10-04T22:15:39.355Z,84.50
2022-10-04T22:19:21.157Z,84.10
2022-10-04T22:23:10.418Z,84.50
2022-10-04T22:26:52.231Z,84.30
2022-10-04T22:30:36.373Z,84.30
2022-10-04T22:34:20.412Z,84.50
2022-10-04T22:38:02.198Z,84.60
2022-10-04T22:42:03.338Z,84.50
2022-10-04T22:45:45.817Z,84.60
2022-10-04T22:49:41.594Z,84.80
2022-10-04T22:53:25.698Z,84.60
2022-10-04T22:57:10.799Z,84.70
2022-10-04T23:00:54.988Z,84.90
2022-10-04T23:04:36.952Z,84.60
2022-10-04T23:08:18.974Z,84.60
2022-10-04T23:12:00.859Z,84.50
2022-10-04T23:15:42.940Z,84.50
2022-10-04T23:19:25.436Z,84.70
2022-10-04T23:23:17.347Z,84.60
2022-10-04T23:26:59.215Z,84.30
2022-10-04T23:30:41.373Z,84.30
2022-10-04T23:34:36.279Z,84.40
2022-10-04T23:38:21.330Z,84.40
2022-10-04T23:42:15.903Z,84.60
2022-10-04T23:45:58.829Z,84.60
2022-10-04T23:49:40.821Z,84.80
2022-10-04T23:53:31.342Z,84.80
2022-10-04T23:57:21.475Z,84.80
